sensor_id;sensor_type;location;lat;lon;timestamp;P1;durP1;ratioP1;P2;durP2;ratioP2
49340;SDS011;35209;51.050;13.678;2023-05-13T00:04:49;8.43;;;7.72;;
49340;SDS011;35209;51.050;13.678;2023-05-13T00:09:51;7.70;;;7.00;;
49340;SDS011;35209;51.050;13.678;2023-05-13T00:14:53;6.95;;;6.40;;
49340;SDS011;35209;51.050;13.678;2023-05-13T00:19:54;7.25;;;6.65;;
49340;SDS011;35209;51.050;13.678;2023-05-13T00:24:56;7.63;;;7.03;;
49340;SDS011;35209;51.050;13.678;2023-05-13T00:29:58;7.00;;;6.50;;
49340;SDS011;35209;51.050;13.678;2023-05-13T00:35:00;6.35;;;5.85;;
49340;SDS011;35209;51.050;13.678;2023-05-13T00:40:02;6.22;;;5.82;;
49340;SDS011;35209;51.050;13.678;2023-05-13T00:45:04;8.55;;;6.30;;
49340;SDS011;35209;51.050;13.678;2023-05-13T00:50:07;6.32;;;5.80;;
49340;SDS011;35209;51.050;13.678;2023-05-13T00:55:10;6.53;;;6.03;;
49340;SDS011;35209;51.050;13.678;2023-05-13T01:00:12;6.30;;;5.80;;
49340;SDS011;35209;51.050;13.678;2023-05-13T01:05:18;6.10;;;5.70;;
49340;SDS011;35209;51.050;13.678;2023-05-13T01:10:46;5.95;;;5.45;;
49340;SDS011;35209;51.050;13.678;2023-05-13T01:15:55;6.68;;;6.18;;
49340;SDS011;35209;51.050;13.678;2023-05-13T01:21:02;6.45;;;5.70;;
49340;SDS011;35209;51.050;13.678;2023-05-13T01:26:06;6.95;;;6.35;;
49340;SDS011;35209;51.050;13.678;2023-05-13T01:31:08;6.68;;;6.07;;
49340;SDS011;35209;51.050;13.678;2023-05-13T01:36:12;6.68;;;5.68;;
49340;SDS011;35209;51.050;13.678;2023-05-13T01:41:14;7.22;;;6.53;;
49340;SDS011;35209;51.050;13.678;2023-05-13T01:46:16;7.18;;;6.60;;
49340;SDS011;35209;51.050;13.678;2023-05-13T01:51:19;6.93;;;6.18;;
49340;SDS011;35209;51.050;13.678;2023-05-13T01:56:21;7.25;;;6.65;;
49340;SDS011;35209;51.050;13.678;2023-05-13T02:01:23;6.72;;;6.22;;
49340;SDS011;35209;51.050;13.678;2023-05-13T02:06:26;7.57;;;6.88;;
49340;SDS011;35209;51.050;13.678;2023-05-13T02:11:28;8.77;;;7.30;;
49340;SDS011;35209;51.050;13.678;2023-05-13T02:16:31;8.13;;;7.50;;
49340;SDS011;35209;51.050;13.678;2023-05-13T02:21:33;7.75;;;7.05;;
49340;SDS011;35209;51.050;13.678;2023-05-13T02:26:35;13.85;;;7.43;;
49340;SDS011;35209;51.050;13.678;2023-05-13T02:31:36;7.93;;;7.30;;
49340;SDS011;35209;51.050;13.678;2023-05-13T02:36:38;7.80;;;7.20;;
49340;SDS011;35209;51.050;13.678;2023-05-13T02:41:40;8.05;;;7.43;;
49340;SDS011;35209;51.050;13.678;2023-05-13T02:46:42;8.52;;;7.65;;
49340;SDS011;35209;51.050;13.678;2023-05-13T02:51:44;8.70;;;7.88;;
49340;SDS011;35209;51.050;13.678;2023-05-13T02:56:46;8.23;;;7.47;;
49340;SDS011;35209;51.050;13.678;2023-05-13T03:01:48;8.07;;;7.38;;
49340;SDS011;35209;51.050;13.678;2023-05-13T03:06:50;7.63;;;6.88;;
49340;SDS011;35209;51.050;13.678;2023-05-13T03:11:53;9.10;;;8.30;;
49340;SDS011;35209;51.050;13.678;2023-05-13T03:16:54;8.68;;;7.75;;
49340;SDS011;35209;51.050;13.678;2023-05-13T03:21:56;9.30;;;8.40;;
49340;SDS011;35209;51.050;13.678;2023-05-13T03:26:58;8.88;;;8.15;;
49340;SDS011;35209;51.050;13.678;2023-05-13T03:32:00;8.30;;;7.60;;
49340;SDS011;35209;51.050;13.678;2023-05-13T03:37:02;8.68;;;7.88;;
49340;SDS011;35209;51.050;13.678;2023-05-13T03:42:05;10.20;;;9.13;;
49340;SDS011;35209;51.050;13.678;2023-05-13T03:47:07;9.55;;;8.75;;
49340;SDS011;35209;51.050;13.678;2023-05-13T03:52:09;9.85;;;8.95;;
49340;SDS011;35209;51.050;13.678;2023-05-13T03:57:11;10.55;;;9.60;;
49340;SDS011;35209;51.050;13.678;2023-05-13T04:02:13;8.48;;;7.68;;
49340;SDS011;35209;51.050;13.678;2023-05-13T04:07:14;9.48;;;8.48;;
49340;SDS011;35209;51.050;13.678;2023-05-13T04:12:16;9.48;;;8.68;;
49340;SDS011;35209;51.050;13.678;2023-05-13T04:17:18;11.25;;;9.85;;
49340;SDS011;35209;51.050;13.678;2023-05-13T04:22:20;12.70;;;10.32;;
49340;SDS011;35209;51.050;13.678;2023-05-13T04:27:22;19.02;;;12.18;;
49340;SDS011;35209;51.050;13.678;2023-05-13T04:32:30;13.13;;;10.15;;
49340;SDS011;35209;51.050;13.678;2023-05-13T04:37:32;10.40;;;8.75;;
49340;SDS011;35209;51.050;13.678;2023-05-13T04:42:38;8.35;;;7.30;;
49340;SDS011;35209;51.050;13.678;2023-05-13T04:47:40;7.90;;;7.20;;
49340;SDS011;35209;51.050;13.678;2023-05-13T04:52:41;6.95;;;6.45;;
49340;SDS011;35209;51.050;13.678;2023-05-13T04:57:44;6.47;;;5.88;;
49340;SDS011;35209;51.050;13.678;2023-05-13T05:02:46;5.55;;;5.15;;
49340;SDS011;35209;51.050;13.678;2023-05-13T05:07:47;5.25;;;4.85;;
49340;SDS011;35209;51.050;13.678;2023-05-13T05:12:49;5.20;;;4.80;;
49340;SDS011;35209;51.050;13.678;2023-05-13T05:17:55;4.95;;;4.55;;
49340;SDS011;35209;51.050;13.678;2023-05-13T05:22:58;4.82;;;4.43;;
49340;SDS011;35209;51.050;13.678;2023-05-13T05:28:01;4.88;;;4.43;;
49340;SDS011;35209;51.050;13.678;2023-05-13T05:33:07;5.05;;;4.65;;
49340;SDS011;35209;51.050;13.678;2023-05-13T05:38:12;4.35;;;4.05;;
49340;SDS011;35209;51.050;13.678;2023-05-13T05:43:13;5.28;;;4.45;;
49340;SDS011;35209;51.050;13.678;2023-05-13T05:48:17;4.20;;;3.80;;
49340;SDS011;35209;51.050;13.678;2023-05-13T05:53:20;3.70;;;3.40;;
49340;SDS011;35209;51.050;13.678;2023-05-13T05:58:22;3.65;;;3.35;;
49340;SDS011;35209;51.050;13.678;2023-05-13T06:03:24;3.20;;;2.90;;
49340;SDS011;35209;51.050;13.678;2023-05-13T06:08:27;4.38;;;3.60;;
49340;SDS011;35209;51.050;13.678;2023-05-13T06:13:31;2.92;;;2.65;;
49340;SDS011;35209;51.050;13.678;2023-05-13T06:18:33;4.43;;;2.90;;
49340;SDS011;35209;51.050;13.678;2023-05-13T06:23:35;3.05;;;2.75;;
49340;SDS011;35209;51.050;13.678;2023-05-13T06:28:38;2.63;;;2.15;;
49340;SDS011;35209;51.050;13.678;2023-05-13T06:33:39;4.10;;;2.63;;
49340;SDS011;35209;51.050;13.678;2023-05-13T06:38:41;2.80;;;2.60;;
49340;SDS011;35209;51.050;13.678;2023-05-13T06:43:43;3.10;;;2.80;;
49340;SDS011;35209;51.050;13.678;2023-05-13T06:48:54;4.20;;;3.30;;
49340;SDS011;35209;51.050;13.678;2023-05-13T06:53:57;2.95;;;2.75;;
49340;SDS011;35209;51.050;13.678;2023-05-13T06:58:59;3.05;;;2.63;;
49340;SDS011;35209;51.050;13.678;2023-05-13T07:04:01;2.53;;;2.00;;
49340;SDS011;35209;51.050;13.678;2023-05-13T07:09:03;3.30;;;2.90;;
49340;SDS011;35209;51.050;13.678;2023-05-13T07:14:08;2.40;;;2.20;;
49340;SDS011;35209;51.050;13.678;2023-05-13T07:19:10;3.22;;;2.35;;
49340;SDS011;35209;51.050;13.678;2023-05-13T07:24:12;2.80;;;2.20;;
49340;SDS011;35209;51.050;13.678;2023-05-13T07:29:14;2.90;;;2.03;;
49340;SDS011;35209;51.050;13.678;2023-05-13T07:34:16;2.97;;;2.22;;
49340;SDS011;35209;51.050;13.678;2023-05-13T07:39:18;3.63;;;2.38;;
49340;SDS011;35209;51.050;13.678;2023-05-13T07:44:19;2.45;;;2.05;;
49340;SDS011;35209;51.050;13.678;2023-05-13T07:49:21;2.03;;;1.75;;
49340;SDS011;35209;51.050;13.678;2023-05-13T07:54:23;1.98;;;1.88;;
49340;SDS011;35209;51.050;13.678;2023-05-13T07:59:25;2.58;;;1.48;;
49340;SDS011;35209;51.050;13.678;2023-05-13T08:04:26;2.72;;;1.77;;
49340;SDS011;35209;51.050;13.678;2023-05-13T08:09:28;2.25;;;1.50;;
49340;SDS011;35209;51.050;13.678;2023-05-13T08:14:30;3.13;;;1.40;;
49340;SDS011;35209;51.050;13.678;2023-05-13T08:19:31;2.08;;;1.60;;
49340;SDS011;35209;51.050;13.678;2023-05-13T08:24:33;2.80;;;1.70;;
49340;SDS011;35209;51.050;13.678;2023-05-13T08:29:35;1.75;;;1.48;;
49340;SDS011;35209;51.050;13.678;2023-05-13T08:34:36;2.38;;;1.60;;
49340;SDS011;35209;51.050;13.678;2023-05-13T08:39:38;2.17;;;1.67;;
49340;SDS011;35209;51.050;13.678;2023-05-13T08:44:40;3.00;;;1.60;;
49340;SDS011;35209;51.050;13.678;2023-05-13T08:49:45;2.45;;;1.50;;
49340;SDS011;35209;51.050;13.678;2023-05-13T08:54:46;1.88;;;1.50;;
49340;SDS011;35209;51.050;13.678;2023-05-13T08:59:49;3.47;;;1.40;;
49340;SDS011;35209;51.050;13.678;2023-05-13T09:04:52;1.35;;;1.25;;
49340;SDS011;35209;51.050;13.678;2023-05-13T09:09:56;1.58;;;1.20;;
49340;SDS011;35209;51.050;13.678;2023-05-13T09:14:58;2.22;;;1.30;;
49340;SDS011;35209;51.050;13.678;2023-05-13T09:20:05;2.40;;;1.60;;
49340;SDS011;35209;51.050;13.678;2023-05-13T09:25:10;3.10;;;1.58;;
49340;SDS011;35209;51.050;13.678;2023-05-13T09:30:13;3.45;;;1.95;;
49340;SDS011;35209;51.050;13.678;2023-05-13T09:35:15;2.15;;;1.38;;
49340;SDS011;35209;51.050;13.678;2023-05-13T09:40:17;2.35;;;1.77;;
49340;SDS011;35209;51.050;13.678;2023-05-13T09:45:19;4.05;;;1.73;;
49340;SDS011;35209;51.050;13.678;2023-05-13T09:50:24;1.95;;;1.77;;
49340;SDS011;35209;51.050;13.678;2023-05-13T09:55:26;2.65;;;1.60;;
49340;SDS011;35209;51.050;13.678;2023-05-13T10:00:29;2.85;;;1.80;;
49340;SDS011;35209;51.050;13.678;2023-05-13T10:05:34;1.98;;;1.70;;
49340;SDS011;35209;51.050;13.678;2023-05-13T10:10:36;2.63;;;1.70;;
49340;SDS011;35209;51.050;13.678;2023-05-13T10:15:49;2.95;;;1.98;;
49340;SDS011;35209;51.050;13.678;2023-05-13T10:20:51;3.67;;;1.65;;
49340;SDS011;35209;51.050;13.678;2023-05-13T10:25:54;3.20;;;1.70;;
49340;SDS011;35209;51.050;13.678;2023-05-13T10:30:59;2.97;;;1.52;;
49340;SDS011;35209;51.050;13.678;2023-05-13T10:47:00;4.30;;;1.73;;
49340;SDS011;35209;51.050;13.678;2023-05-13T10:52:03;1.77;;;1.45;;
49340;SDS011;35209;51.050;13.678;2023-05-13T10:57:08;2.53;;;2.10;;
49340;SDS011;35209;51.050;13.678;2023-05-13T11:02:20;3.15;;;1.50;;
49340;SDS011;35209;51.050;13.678;2023-05-13T11:07:23;1.70;;;1.52;;
49340;SDS011;35209;51.050;13.678;2023-05-13T11:12:28;3.40;;;1.63;;
49340;SDS011;35209;51.050;13.678;2023-05-13T11:17:30;2.00;;;1.63;;
49340;SDS011;35209;51.050;13.678;2023-05-13T11:22:34;3.00;;;1.50;;
49340;SDS011;35209;51.050;13.678;2023-05-13T11:27:37;2.38;;;1.60;;
49340;SDS011;35209;51.050;13.678;2023-05-13T11:37:54;2.45;;;1.60;;
49340;SDS011;35209;51.050;13.678;2023-05-13T11:43:00;2.92;;;1.60;;
49340;SDS011;35209;51.050;13.678;2023-05-13T11:48:18;3.30;;;1.73;;
49340;SDS011;35209;51.050;13.678;2023-05-13T11:53:24;1.80;;;1.25;;
49340;SDS011;35209;51.050;13.678;2023-05-13T11:58:25;1.60;;;1.50;;
49340;SDS011;35209;51.050;13.678;2023-05-13T12:03:27;1.40;;;1.20;;
49340;SDS011;35209;51.050;13.678;2023-05-13T12:08:29;3.72;;;1.55;;
49340;SDS011;35209;51.050;13.678;2023-05-13T12:13:30;2.03;;;1.35;;
49340;SDS011;35209;51.050;13.678;2023-05-13T12:18:32;1.50;;;1.33;;
49340;SDS011;35209;51.050;13.678;2023-05-13T12:23:38;1.50;;;1.17;;
49340;SDS011;35209;51.050;13.678;2023-05-13T12:28:41;2.72;;;1.05;;
49340;SDS011;35209;51.050;13.678;2023-05-13T12:33:43;5.47;;;1.10;;
49340;SDS011;35209;51.050;13.678;2023-05-13T12:44:07;1.35;;;1.10;;
49340;SDS011;35209;51.050;13.678;2023-05-13T12:49:14;2.22;;;1.50;;
49340;SDS011;35209;51.050;13.678;2023-05-13T12:54:16;1.05;;;0.90;;
49340;SDS011;35209;51.050;13.678;2023-05-13T12:59:18;1.88;;;1.30;;
49340;SDS011;35209;51.050;13.678;2023-05-13T13:04:19;1.20;;;1.10;;
49340;SDS011;35209;51.050;13.678;2023-05-13T13:09:21;1.35;;;1.10;;
49340;SDS011;35209;51.050;13.678;2023-05-13T13:14:23;1.85;;;1.15;;
49340;SDS011;35209;51.050;13.678;2023-05-13T13:19:26;1.67;;;1.15;;
49340;SDS011;35209;51.050;13.678;2023-05-13T13:24:28;1.48;;;1.13;;
49340;SDS011;35209;51.050;13.678;2023-05-13T13:29:29;2.45;;;1.40;;
49340;SDS011;35209;51.050;13.678;2023-05-13T13:34:31;2.55;;;1.17;;
49340;SDS011;35209;51.050;13.678;2023-05-13T13:39:33;2.20;;;1.33;;
49340;SDS011;35209;51.050;13.678;2023-05-13T13:44:35;1.55;;;1.33;;
49340;SDS011;35209;51.050;13.678;2023-05-13T13:49:38;1.40;;;1.10;;
49340;SDS011;35209;51.050;13.678;2023-05-13T13:54:40;1.70;;;1.30;;
49340;SDS011;35209;51.050;13.678;2023-05-13T13:59:41;1.40;;;1.25;;
49340;SDS011;35209;51.050;13.678;2023-05-13T14:04:44;2.20;;;1.45;;
49340;SDS011;35209;51.050;13.678;2023-05-13T14:09:46;1.52;;;1.30;;
49340;SDS011;35209;51.050;13.678;2023-05-13T14:14:50;1.90;;;1.30;;
49340;SDS011;35209;51.050;13.678;2023-05-13T14:19:51;3.22;;;1.45;;
49340;SDS011;35209;51.050;13.678;2023-05-13T14:24:55;1.40;;;1.30;;
49340;SDS011;35209;51.050;13.678;2023-05-13T14:29:57;1.77;;;1.38;;
49340;SDS011;35209;51.050;13.678;2023-05-13T14:34:59;1.63;;;1.50;;
49340;SDS011;35209;51.050;13.678;2023-05-13T14:40:01;2.75;;;1.67;;
49340;SDS011;35209;51.050;13.678;2023-05-13T14:45:02;1.98;;;1.88;;
49340;SDS011;35209;51.050;13.678;2023-05-13T14:50:05;2.15;;;1.70;;
49340;SDS011;35209;51.050;13.678;2023-05-13T14:55:07;2.20;;;1.67;;
49340;SDS011;35209;51.050;13.678;2023-05-13T15:00:09;3.95;;;2.00;;
49340;SDS011;35209;51.050;13.678;2023-05-13T15:05:11;2.75;;;1.45;;
49340;SDS011;35209;51.050;13.678;2023-05-13T15:10:14;3.17;;;1.55;;
49340;SDS011;35209;51.050;13.678;2023-05-13T15:15:16;2.55;;;1.30;;
49340;SDS011;35209;51.050;13.678;2023-05-13T15:20:17;3.17;;;1.80;;
49340;SDS011;35209;51.050;13.678;2023-05-13T15:25:19;2.13;;;1.58;;
49340;SDS011;35209;51.050;13.678;2023-05-13T15:30:21;3.03;;;1.88;;
49340;SDS011;35209;51.050;13.678;2023-05-13T15:35:23;7.03;;;3.38;;
49340;SDS011;35209;51.050;13.678;2023-05-13T15:40:25;3.72;;;1.90;;
49340;SDS011;35209;51.050;13.678;2023-05-13T15:45:27;2.33;;;2.13;;
49340;SDS011;35209;51.050;13.678;2023-05-13T15:50:29;1.95;;;1.77;;
49340;SDS011;35209;51.050;13.678;2023-05-13T15:55:31;2.75;;;1.58;;
49340;SDS011;35209;51.050;13.678;2023-05-13T16:00:34;1.65;;;1.55;;
49340;SDS011;35209;51.050;13.678;2023-05-13T16:05:36;1.30;;;1.20;;
49340;SDS011;35209;51.050;13.678;2023-05-13T16:10:38;1.60;;;1.50;;
49340;SDS011;35209;51.050;13.678;2023-05-13T16:15:40;3.80;;;1.40;;
49340;SDS011;35209;51.050;13.678;2023-05-13T16:20:42;2.75;;;1.95;;
49340;SDS011;35209;51.050;13.678;2023-05-13T16:25:43;5.40;;;1.73;;
49340;SDS011;35209;51.050;13.678;2023-05-13T16:30:45;1.73;;;1.48;;
49340;SDS011;35209;51.050;13.678;2023-05-13T16:35:47;1.75;;;1.65;;
49340;SDS011;35209;51.050;13.678;2023-05-13T16:40:49;1.98;;;1.73;;
49340;SDS011;35209;51.050;13.678;2023-05-13T16:45:50;2.45;;;2.05;;
49340;SDS011;35209;51.050;13.678;2023-05-13T16:50:52;2.50;;;2.17;;
49340;SDS011;35209;51.050;13.678;2023-05-13T16:55:54;4.80;;;2.05;;
49340;SDS011;35209;51.050;13.678;2023-05-13T17:00:55;2.92;;;2.58;;
49340;SDS011;35209;51.050;13.678;2023-05-13T17:05:59;3.33;;;2.28;;
49340;SDS011;35209;51.050;13.678;2023-05-13T17:11:01;7.88;;;3.75;;
49340;SDS011;35209;51.050;13.678;2023-05-13T17:16:03;3.33;;;3.03;;
49340;SDS011;35209;51.050;13.678;2023-05-13T17:21:05;3.78;;;3.47;;
49340;SDS011;35209;51.050;13.678;2023-05-13T17:26:07;3.58;;;2.80;;
49340;SDS011;35209;51.050;13.678;2023-05-13T17:31:09;3.10;;;2.80;;
49340;SDS011;35209;51.050;13.678;2023-05-13T17:36:10;2.75;;;2.55;;
49340;SDS011;35209;51.050;13.678;2023-05-13T17:41:12;4.30;;;3.53;;
49340;SDS011;35209;51.050;13.678;2023-05-13T17:46:16;7.15;;;6.35;;
49340;SDS011;35209;51.050;13.678;2023-05-13T17:51:18;6.75;;;5.55;;
49340;SDS011;35209;51.050;13.678;2023-05-13T17:56:20;6.18;;;4.18;;
49340;SDS011;35209;51.050;13.678;2023-05-13T18:01:21;3.20;;;3.00;;
49340;SDS011;35209;51.050;13.678;2023-05-13T18:06:23;3.80;;;2.97;;
49340;SDS011;35209;51.050;13.678;2023-05-13T18:11:25;3.88;;;3.58;;
49340;SDS011;35209;51.050;13.678;2023-05-13T18:16:27;3.20;;;2.90;;
49340;SDS011;35209;51.050;13.678;2023-05-13T18:21:29;4.15;;;3.80;;
49340;SDS011;35209;51.050;13.678;2023-05-13T18:26:32;3.95;;;3.63;;
49340;SDS011;35209;51.050;13.678;2023-05-13T18:31:33;4.35;;;4.05;;
49340;SDS011;35209;51.050;13.678;2023-05-13T18:36:35;5.70;;;4.57;;
49340;SDS011;35209;51.050;13.678;2023-05-13T18:41:37;5.00;;;4.57;;
49340;SDS011;35209;51.050;13.678;2023-05-13T18:46:38;4.13;;;3.72;;
49340;SDS011;35209;51.050;13.678;2023-05-13T18:51:40;4.72;;;4.10;;
49340;SDS011;35209;51.050;13.678;2023-05-13T18:56:42;4.57;;;4.28;;
49340;SDS011;35209;51.050;13.678;2023-05-13T19:01:44;7.25;;;6.55;;
49340;SDS011;35209;51.050;13.678;2023-05-13T19:06:46;6.72;;;6.22;;
49340;SDS011;35209;51.050;13.678;2023-05-13T19:11:48;7.20;;;6.50;;
49340;SDS011;35209;51.050;13.678;2023-05-13T19:16:50;6.18;;;5.68;;
49340;SDS011;35209;51.050;13.678;2023-05-13T19:21:52;6.10;;;5.53;;
49340;SDS011;35209;51.050;13.678;2023-05-13T19:26:53;5.60;;;5.13;;
49340;SDS011;35209;51.050;13.678;2023-05-13T19:31:55;5.72;;;5.10;;
49340;SDS011;35209;51.050;13.678;2023-05-13T19:36:57;5.28;;;4.88;;
49340;SDS011;35209;51.050;13.678;2023-05-13T19:41:59;5.57;;;5.18;;
49340;SDS011;35209;51.050;13.678;2023-05-13T19:47:01;8.45;;;7.85;;
49340;SDS011;35209;51.050;13.678;2023-05-13T19:52:03;8.88;;;8.15;;
49340;SDS011;35209;51.050;13.678;2023-05-13T19:57:05;9.30;;;8.43;;
49340;SDS011;35209;51.050;13.678;2023-05-13T20:02:08;9.25;;;8.63;;
49340;SDS011;35209;51.050;13.678;2023-05-13T20:07:10;9.13;;;8.50;;
49340;SDS011;35209;51.050;13.678;2023-05-13T20:12:12;7.63;;;6.93;;
49340;SDS011;35209;51.050;13.678;2023-05-13T20:17:17;8.55;;;7.72;;
49340;SDS011;35209;51.050;13.678;2023-05-13T20:22:20;26.27;;;24.00;;
49340;SDS011;35209;51.050;13.678;2023-05-13T20:27:22;238.15;;;147.65;;
49340;SDS011;35209;51.050;13.678;2023-05-13T20:32:23;170.32;;;110.00;;
49340;SDS011;35209;51.050;13.678;2023-05-13T20:37:28;17.17;;;15.98;;
49340;SDS011;35209;51.050;13.678;2023-05-13T20:42:30;22.55;;;20.23;;
49340;SDS011;35209;51.050;13.678;2023-05-13T20:47:32;19.65;;;18.25;;
49340;SDS011;35209;51.050;13.678;2023-05-13T20:52:33;25.50;;;22.65;;
49340;SDS011;35209;51.050;13.678;2023-05-13T20:57:35;15.43;;;14.23;;
49340;SDS011;35209;51.050;13.678;2023-05-13T21:02:37;17.58;;;16.27;;
49340;SDS011;35209;51.050;13.678;2023-05-13T21:07:39;21.60;;;19.75;;
49340;SDS011;35209;51.050;13.678;2023-05-13T21:12:41;26.27;;;23.83;;
49340;SDS011;35209;51.050;13.678;2023-05-13T21:17:47;22.48;;;20.42;;
49340;SDS011;35209;51.050;13.678;2023-05-13T21:22:49;17.58;;;16.45;;
49340;SDS011;35209;51.050;13.678;2023-05-13T21:27:50;14.35;;;13.35;;
49340;SDS011;35209;51.050;13.678;2023-05-13T21:32:52;13.80;;;12.60;;
49340;SDS011;35209;51.050;13.678;2023-05-13T21:37:54;20.83;;;18.95;;
49340;SDS011;35209;51.050;13.678;2023-05-13T21:43:11;159.45;;;80.70;;
49340;SDS011;35209;51.050;13.678;2023-05-13T21:48:13;68.47;;;37.90;;
49340;SDS011;35209;51.050;13.678;2023-05-13T21:53:15;99.97;;;62.88;;
49340;SDS011;35209;51.050;13.678;2023-05-13T21:58:17;14.43;;;13.35;;
49340;SDS011;35209;51.050;13.678;2023-05-13T22:03:20;29.55;;;26.50;;
49340;SDS011;35209;51.050;13.678;2023-05-13T22:08:22;143.70;;;70.38;;
49340;SDS011;35209;51.050;13.678;2023-05-13T22:13:24;14.02;;;12.98;;
49340;SDS011;35209;51.050;13.678;2023-05-13T22:18:26;12.98;;;12.07;;
49340;SDS011;35209;51.050;13.678;2023-05-13T22:23:27;12.38;;;11.48;;
49340;SDS011;35209;51.050;13.678;2023-05-13T22:28:29;71.10;;;41.63;;
49340;SDS011;35209;51.050;13.678;2023-05-13T22:33:31;24.95;;;22.42;;
49340;SDS011;35209;51.050;13.678;2023-05-13T22:38:33;23.85;;;22.13;;
49340;SDS011;35209;51.050;13.678;2023-05-13T22:43:34;22.38;;;20.70;;
49340;SDS011;35209;51.050;13.678;2023-05-13T22:48:36;20.92;;;19.05;;
49340;SDS011;35209;51.050;13.678;2023-05-13T22:53:37;18.70;;;17.27;;
49340;SDS011;35209;51.050;13.678;2023-05-13T22:58:39;12.82;;;11.93;;
49340;SDS011;35209;51.050;13.678;2023-05-13T23:03:41;10.98;;;10.05;;
49340;SDS011;35209;51.050;13.678;2023-05-13T23:08:43;18.15;;;16.85;;
49340;SDS011;35209;51.050;13.678;2023-05-13T23:13:44;18.25;;;16.70;;
49340;SDS011;35209;51.050;13.678;2023-05-13T23:18:46;10.52;;;9.70;;
49340;SDS011;35209;51.050;13.678;2023-05-13T23:23:48;10.23;;;9.52;;
49340;SDS011;35209;51.050;13.678;2023-05-13T23:28:50;10.90;;;10.00;;
49340;SDS011;35209;51.050;13.678;2023-05-13T23:33:52;10.50;;;9.70;;
49340;SDS011;35209;51.050;13.678;2023-05-13T23:38:53;10.20;;;9.50;;
49340;SDS011;35209;51.050;13.678;2023-05-13T23:43:55;10.98;;;10.18;;
49340;SDS011;35209;51.050;13.678;2023-05-13T23:48:57;11.27;;;10.38;;
49340;SDS011;35209;51.050;13.678;2023-05-13T23:53:58;10.63;;;9.93;;
49340;SDS011;35209;51.050;13.678;2023-05-13T23:59:01;11.80;;;10.90;;
